sensor_id;sensor_type;location;lat;lon;timestamp;temperature;humidity
19031;DHT22;9648;51.130;13.978;2023-07-02T00:00:46;17.00;99.90
19031;DHT22;9648;51.130;13.978;2023-07-02T00:03:16;17.10;99.90
19031;DHT22;9648;51.130;13.978;2023-07-02T00:05:48;17.10;99.90
19031;DHT22;9648;51.130;13.978;2023-07-02T00:08:21;17.10;99.90
19031;DHT22;9648;51.130;13.978;2023-07-02T00:10:58;17.10;99.90
19031;DHT22;9648;51.130;13.978;2023-07-02T00:13:27;17.10;99.90
19031;DHT22;9648;51.130;13.978;2023-07-02T00:15:56;17.10;99.90
19031;DHT22;9648;51.130;13.978;2023-07-02T00:18:24;17.10;99.90
19031;DHT22;9648;51.130;13.978;2023-07-02T00:21:07;17.10;99.90
19031;DHT22;9648;51.130;13.978;2023-07-02T00:23:39;17.20;99.90
19031;DHT22;9648;51.130;13.978;2023-07-02T00:26:06;17.20;99.90
19031;DHT22;9648;51.130;13.978;2023-07-02T00:28:37;17.20;99.90
19031;DHT22;9648;51.130;13.978;2023-07-02T00:31:09;17.20;99.90
19031;DHT22;9648;51.130;13.978;2023-07-02T00:33:36;17.20;99.90
19031;DHT22;9648;51.130;13.978;2023-07-02T00:36:03;17.20;99.90
19031;DHT22;9648;51.130;13.978;2023-07-02T00:38:34;17.20;99.90
19031;DHT22;9648;51.130;13.978;2023-07-02T00:41:01;17.30;99.90
19031;DHT22;9648;51.130;13.978;2023-07-02T00:43:27;17.30;99.90
19031;DHT22;9648;51.130;13.978;2023-07-02T00:45:55;17.30;99.90
19031;DHT22;9648;51.130;13.978;2023-07-02T00:48:23;17.20;99.90
19031;DHT22;9648;51.130;13.978;2023-07-02T00:50:50;17.20;99.90
19031;DHT22;9648;51.130;13.978;2023-07-02T00:53:17;17.20;99.90
19031;DHT22;9648;51.130;13.978;2023-07-02T00:55:44;17.20;99.90
19031;DHT22;9648;51.130;13.978;2023-07-02T00:58:11;17.30;99.90
19031;DHT22;9648;51.130;13.978;2023-07-02T01:00:41;17.30;99.90
19031;DHT22;9648;51.130;13.978;2023-07-02T01:03:09;17.30;99.90
19031;DHT22;9648;51.130;13.978;2023-07-02T01:05:39;17.20;99.90
19031;DHT22;9648;51.130;13.978;2023-07-02T01:08:07;17.30;99.90
19031;DHT22;9648;51.130;13.978;2023-07-02T01:10:36;17.30;99.90
19031;DHT22;9648;51.130;13.978;2023-07-02T01:13:07;17.30;99.90
19031;DHT22;9648;51.130;13.978;2023-07-02T01:15:35;17.30;99.90
19031;DHT22;9648;51.130;13.978;2023-07-02T01:18:04;17.30;99.90
19031;DHT22;9648;51.130;13.978;2023-07-02T01:20:36;17.30;99.90
19031;DHT22;9648;51.130;13.978;2023-07-02T01:23:04;17.40;99.90
19031;DHT22;9648;51.130;13.978;2023-07-02T01:25:34;17.30;99.90
19031;DHT22;9648;51.130;13.978;2023-07-02T01:28:02;17.30;99.90
19031;DHT22;9648;51.130;13.978;2023-07-02T01:30:29;17.30;99.90
19031;DHT22;9648;51.130;13.978;2023-07-02T01:32:56;17.30;99.90
19031;DHT22;9648;51.130;13.978;2023-07-02T01:35:23;17.30;99.90
19031;DHT22;9648;51.130;13.978;2023-07-02T01:37:51;17.30;99.90
19031;DHT22;9648;51.130;13.978;2023-07-02T01:40:19;17.30;99.90
19031;DHT22;9648;51.130;13.978;2023-07-02T01:42:45;17.30;99.90
19031;DHT22;9648;51.130;13.978;2023-07-02T01:45:12;17.30;99.90
19031;DHT22;9648;51.130;13.978;2023-07-02T01:47:39;17.30;99.90
19031;DHT22;9648;51.130;13.978;2023-07-02T01:50:07;17.30;99.90
19031;DHT22;9648;51.130;13.978;2023-07-02T01:52:34;17.30;99.90
19031;DHT22;9648;51.130;13.978;2023-07-02T01:55:06;17.30;99.90
19031;DHT22;9648;51.130;13.978;2023-07-02T01:57:33;17.30;99.90
19031;DHT22;9648;51.130;13.978;2023-07-02T02:00:00;17.30;99.90
19031;DHT22;9648;51.130;13.978;2023-07-02T02:02:27;17.30;99.90
19031;DHT22;9648;51.130;13.978;2023-07-02T02:04:54;17.30;99.90
19031;DHT22;9648;51.130;13.978;2023-07-02T02:07:22;17.30;99.90
19031;DHT22;9648;51.130;13.978;2023-07-02T02:09:49;17.30;99.90
19031;DHT22;9648;51.130;13.978;2023-07-02T02:12:17;17.30;99.90
19031;DHT22;9648;51.130;13.978;2023-07-02T02:14:44;17.30;99.90
19031;DHT22;9648;51.130;13.978;2023-07-02T02:17:11;17.30;99.90
19031;DHT22;9648;51.130;13.978;2023-07-02T02:19:39;17.40;99.90
19031;DHT22;9648;51.130;13.978;2023-07-02T02:22:06;17.40;99.90
19031;DHT22;9648;51.130;13.978;2023-07-02T02:24:34;17.40;99.90
19031;DHT22;9648;51.130;13.978;2023-07-02T02:27:04;17.40;99.90
19031;DHT22;9648;51.130;13.978;2023-07-02T02:29:34;17.40;99.90
19031;DHT22;9648;51.130;13.978;2023-07-02T02:32:01;17.40;99.90
19031;DHT22;9648;51.130;13.978;2023-07-02T02:34:27;17.40;99.90
19031;DHT22;9648;51.130;13.978;2023-07-02T02:36:55;17.30;99.90
19031;DHT22;9648;51.130;13.978;2023-07-02T02:39:22;17.30;99.90
19031;DHT22;9648;51.130;13.978;2023-07-02T02:41:49;17.30;99.90
19031;DHT22;9648;51.130;13.978;2023-07-02T02:44:16;17.30;99.90
19031;DHT22;9648;51.130;13.978;2023-07-02T02:46:45;17.20;99.90
19031;DHT22;9648;51.130;13.978;2023-07-02T02:49:11;17.30;99.90
19031;DHT22;9648;51.130;13.978;2023-07-02T02:51:38;17.30;99.90
19031;DHT22;9648;51.130;13.978;2023-07-02T02:54:06;17.30;99.90
19031;DHT22;9648;51.130;13.978;2023-07-02T02:56:39;17.30;99.90
19031;DHT22;9648;51.130;13.978;2023-07-02T02:59:06;17.20;99.90
19031;DHT22;9648;51.130;13.978;2023-07-02T03:01:33;17.20;99.90
19031;DHT22;9648;51.130;13.978;2023-07-02T03:04:01;17.20;99.90
19031;DHT22;9648;51.130;13.978;2023-07-02T03:06:28;17.20;99.90
19031;DHT22;9648;51.130;13.978;2023-07-02T03:08:55;17.20;99.90
19031;DHT22;9648;51.130;13.978;2023-07-02T03:11:22;17.20;99.90
19031;DHT22;9648;51.130;13.978;2023-07-02T03:13:49;17.20;99.90
19031;DHT22;9648;51.130;13.978;2023-07-02T03:16:16;17.20;99.90
19031;DHT22;9648;51.130;13.978;2023-07-02T03:18:43;17.10;99.90
19031;DHT22;9648;51.130;13.978;2023-07-02T03:21:11;17.20;99.90
19031;DHT22;9648;51.130;13.978;2023-07-02T03:23:38;17.20;99.90
19031;DHT22;9648;51.130;13.978;2023-07-02T03:26:04;17.20;99.90
19031;DHT22;9648;51.130;13.978;2023-07-02T03:28:36;17.20;99.90
19031;DHT22;9648;51.130;13.978;2023-07-02T03:31:03;17.20;99.90
19031;DHT22;9648;51.130;13.978;2023-07-02T03:33:30;17.20;99.90
19031;DHT22;9648;51.130;13.978;2023-07-02T03:35:57;17.20;99.90
19031;DHT22;9648;51.130;13.978;2023-07-02T03:38:25;17.20;99.90
19031;DHT22;9648;51.130;13.978;2023-07-02T03:40:52;17.20;99.90
19031;DHT22;9648;51.130;13.978;2023-07-02T03:43:19;17.30;99.90
19031;DHT22;9648;51.130;13.978;2023-07-02T03:45:46;17.30;99.90
19031;DHT22;9648;51.130;13.978;2023-07-02T03:48:12;17.30;99.90
19031;DHT22;9648;51.130;13.978;2023-07-02T03:50:39;17.30;99.90
19031;DHT22;9648;51.130;13.978;2023-07-02T03:53:06;17.30;99.90
19031;DHT22;9648;51.130;13.978;2023-07-02T03:55:34;17.20;99.90
19031;DHT22;9648;51.130;13.978;2023-07-02T03:58:01;17.20;99.90
19031;DHT22;9648;51.130;13.978;2023-07-02T04:00:28;17.20;99.90
19031;DHT22;9648;51.130;13.978;2023-07-02T04:02:54;17.20;99.90
19031;DHT22;9648;51.130;13.978;2023-07-02T04:05:22;17.20;99.90
19031;DHT22;9648;51.130;13.978;2023-07-02T04:07:49;17.20;99.90
19031;DHT22;9648;51.130;13.978;2023-07-02T04:10:15;17.20;99.90
19031;DHT22;9648;51.130;13.978;2023-07-02T04:12:44;17.20;99.90
19031;DHT22;9648;51.130;13.978;2023-07-02T04:15:11;17.10;99.90
19031;DHT22;9648;51.130;13.978;2023-07-02T04:17:37;17.10;99.90
19031;DHT22;9648;51.130;13.978;2023-07-02T04:20:05;16.90;99.90
19031;DHT22;9648;51.130;13.978;2023-07-02T04:22:35;16.70;99.90
19031;DHT22;9648;51.130;13.978;2023-07-02T04:25:02;16.50;99.90
19031;DHT22;9648;51.130;13.978;2023-07-02T04:27:29;16.30;99.90
19031;DHT22;9648;51.130;13.978;2023-07-02T04:29:59;16.10;99.90
19031;DHT22;9648;51.130;13.978;2023-07-02T04:32:26;15.90;99.90
19031;DHT22;9648;51.130;13.978;2023-07-02T04:34:52;15.80;99.90
19031;DHT22;9648;51.130;13.978;2023-07-02T04:37:19;15.70;99.90
19031;DHT22;9648;51.130;13.978;2023-07-02T04:39:47;15.70;99.90
19031;DHT22;9648;51.130;13.978;2023-07-02T04:42:14;15.70;99.90
19031;DHT22;9648;51.130;13.978;2023-07-02T04:44:41;15.70;99.90
19031;DHT22;9648;51.130;13.978;2023-07-02T04:47:10;15.60;99.90
19031;DHT22;9648;51.130;13.978;2023-07-02T04:49:37;15.70;99.90
19031;DHT22;9648;51.130;13.978;2023-07-02T04:52:04;15.60;99.90
19031;DHT22;9648;51.130;13.978;2023-07-02T04:54:40;15.60;99.90
19031;DHT22;9648;51.130;13.978;2023-07-02T04:57:07;15.60;99.90
19031;DHT22;9648;51.130;13.978;2023-07-02T04:59:33;15.60;99.90
19031;DHT22;9648;51.130;13.978;2023-07-02T05:02:00;15.50;99.90
19031;DHT22;9648;51.130;13.978;2023-07-02T05:04:28;15.60;99.90
19031;DHT22;9648;51.130;13.978;2023-07-02T05:06:55;15.50;99.90
19031;DHT22;9648;51.130;13.978;2023-07-02T05:09:22;15.50;99.90
19031;DHT22;9648;51.130;13.978;2023-07-02T05:11:49;15.50;99.90
19031;DHT22;9648;51.130;13.978;2023-07-02T05:14:16;15.50;99.90
19031;DHT22;9648;51.130;13.978;2023-07-02T05:16:42;15.50;99.90
19031;DHT22;9648;51.130;13.978;2023-07-02T05:19:09;15.50;99.90
19031;DHT22;9648;51.130;13.978;2023-07-02T05:21:37;15.50;99.90
19031;DHT22;9648;51.130;13.978;2023-07-02T05:24:05;15.50;99.90
19031;DHT22;9648;51.130;13.978;2023-07-02T05:26:33;15.50;99.90
19031;DHT22;9648;51.130;13.978;2023-07-02T05:28:59;15.60;99.90
19031;DHT22;9648;51.130;13.978;2023-07-02T05:31:26;15.60;99.90
19031;DHT22;9648;51.130;13.978;2023-07-02T05:33:53;15.70;99.90
19031;DHT22;9648;51.130;13.978;2023-07-02T05:36:20;15.70;99.90
19031;DHT22;9648;51.130;13.978;2023-07-02T05:38:48;15.80;99.90
19031;DHT22;9648;51.130;13.978;2023-07-02T05:41:18;15.80;99.90
19031;DHT22;9648;51.130;13.978;2023-07-02T05:43:45;15.90;99.90
19031;DHT22;9648;51.130;13.978;2023-07-02T05:46:12;15.90;99.90
19031;DHT22;9648;51.130;13.978;2023-07-02T05:48:45;16.00;99.90
19031;DHT22;9648;51.130;13.978;2023-07-02T05:51:12;16.10;99.90
19031;DHT22;9648;51.130;13.978;2023-07-02T05:53:39;16.10;99.90
19031;DHT22;9648;51.130;13.978;2023-07-02T05:56:07;16.20;99.90
19031;DHT22;9648;51.130;13.978;2023-07-02T05:58:38;16.40;99.90
19031;DHT22;9648;51.130;13.978;2023-07-02T06:01:05;16.50;99.90
19031;DHT22;9648;51.130;13.978;2023-07-02T06:03:32;16.60;99.90
19031;DHT22;9648;51.130;13.978;2023-07-02T06:05:59;16.70;99.90
19031;DHT22;9648;51.130;13.978;2023-07-02T06:08:26;16.80;99.90
19031;DHT22;9648;51.130;13.978;2023-07-02T06:10:53;17.00;99.90
19031;DHT22;9648;51.130;13.978;2023-07-02T06:13:21;17.10;99.90
19031;DHT22;9648;51.130;13.978;2023-07-02T06:15:48;17.20;99.90
19031;DHT22;9648;51.130;13.978;2023-07-02T06:18:15;17.30;99.90
19031;DHT22;9648;51.130;13.978;2023-07-02T06:20:42;17.40;99.90
19031;DHT22;9648;51.130;13.978;2023-07-02T06:23:09;17.40;99.90
19031;DHT22;9648;51.130;13.978;2023-07-02T06:25:36;17.60;99.90
19031;DHT22;9648;51.130;13.978;2023-07-02T06:28:03;17.70;99.90
19031;DHT22;9648;51.130;13.978;2023-07-02T06:30:34;17.80;99.90
19031;DHT22;9648;51.130;13.978;2023-07-02T06:33:01;17.90;99.90
19031;DHT22;9648;51.130;13.978;2023-07-02T06:35:28;18.00;99.90
19031;DHT22;9648;51.130;13.978;2023-07-02T06:37:55;18.20;99.90
19031;DHT22;9648;51.130;13.978;2023-07-02T06:40:22;18.20;99.90
19031;DHT22;9648;51.130;13.978;2023-07-02T06:42:49;18.20;99.90
19031;DHT22;9648;51.130;13.978;2023-07-02T06:45:15;18.20;99.90
19031;DHT22;9648;51.130;13.978;2023-07-02T06:47:44;18.20;99.90
19031;DHT22;9648;51.130;13.978;2023-07-02T06:50:11;18.10;99.90
19031;DHT22;9648;51.130;13.978;2023-07-02T06:52:37;18.10;99.90
19031;DHT22;9648;51.130;13.978;2023-07-02T06:55:05;18.20;99.90
19031;DHT22;9648;51.130;13.978;2023-07-02T06:57:32;18.30;99.90
19031;DHT22;9648;51.130;13.978;2023-07-02T06:59:59;18.30;99.90
19031;DHT22;9648;51.130;13.978;2023-07-02T07:02:26;18.30;99.90
19031;DHT22;9648;51.130;13.978;2023-07-02T07:04:54;18.40;99.90
19031;DHT22;9648;51.130;13.978;2023-07-02T07:07:21;18.50;99.90
19031;DHT22;9648;51.130;13.978;2023-07-02T07:09:48;18.60;99.90
19031;DHT22;9648;51.130;13.978;2023-07-02T07:12:15;18.60;99.90
19031;DHT22;9648;51.130;13.978;2023-07-02T07:14:42;18.70;99.90
19031;DHT22;9648;51.130;13.978;2023-07-02T07:17:09;18.80;99.90
19031;DHT22;9648;51.130;13.978;2023-07-02T07:19:36;19.00;99.90
19031;DHT22;9648;51.130;13.978;2023-07-02T07:22:04;19.00;99.90
19031;DHT22;9648;51.130;13.978;2023-07-02T07:24:34;18.80;99.90
19031;DHT22;9648;51.130;13.978;2023-07-02T07:27:01;18.70;99.90
19031;DHT22;9648;51.130;13.978;2023-07-02T07:29:28;18.70;99.90
19031;DHT22;9648;51.130;13.978;2023-07-02T07:31:54;18.80;99.90
19031;DHT22;9648;51.130;13.978;2023-07-02T07:34:21;18.80;99.90
19031;DHT22;9648;51.130;13.978;2023-07-02T07:36:51;18.60;99.90
19031;DHT22;9648;51.130;13.978;2023-07-02T07:39:19;18.70;99.90
19031;DHT22;9648;51.130;13.978;2023-07-02T07:41:46;18.80;99.90
19031;DHT22;9648;51.130;13.978;2023-07-02T07:44:15;18.90;99.90
19031;DHT22;9648;51.130;13.978;2023-07-02T07:46:44;18.80;99.90
19031;DHT22;9648;51.130;13.978;2023-07-02T07:49:11;18.80;99.90
19031;DHT22;9648;51.130;13.978;2023-07-02T07:51:38;18.80;99.90
19031;DHT22;9648;51.130;13.978;2023-07-02T07:54:05;18.70;99.90
19031;DHT22;9648;51.130;13.978;2023-07-02T07:56:43;18.70;99.90
19031;DHT22;9648;51.130;13.978;2023-07-02T07:59:49;18.70;99.90
19031;DHT22;9648;51.130;13.978;2023-07-02T08:02:16;19.00;99.90
19031;DHT22;9648;51.130;13.978;2023-07-02T08:04:43;19.30;99.90
19031;DHT22;9648;51.130;13.978;2023-07-02T08:07:10;19.30;99.90
19031;DHT22;9648;51.130;13.978;2023-07-02T08:09:37;19.20;99.90
19031;DHT22;9648;51.130;13.978;2023-07-02T08:12:06;19.10;99.90
19031;DHT22;9648;51.130;13.978;2023-07-02T08:14:34;19.10;99.90
19031;DHT22;9648;51.130;13.978;2023-07-02T08:17:04;19.20;99.90
19031;DHT22;9648;51.130;13.978;2023-07-02T08:19:30;19.30;99.90
19031;DHT22;9648;51.130;13.978;2023-07-02T08:22:00;19.50;99.90
19031;DHT22;9648;51.130;13.978;2023-07-02T08:24:28;19.70;99.90
19031;DHT22;9648;51.130;13.978;2023-07-02T08:26:56;19.90;99.90
19031;DHT22;9648;51.130;13.978;2023-07-02T08:29:28;20.00;99.90
19031;DHT22;9648;51.130;13.978;2023-07-02T08:31:55;20.10;99.90
19031;DHT22;9648;51.130;13.978;2023-07-02T08:34:22;20.00;99.90
19031;DHT22;9648;51.130;13.978;2023-07-02T08:36:49;19.80;99.90
19031;DHT22;9648;51.130;13.978;2023-07-02T08:39:17;19.80;99.90
19031;DHT22;9648;51.130;13.978;2023-07-02T08:41:44;19.80;99.90
19031;DHT22;9648;51.130;13.978;2023-07-02T08:44:13;19.90;99.90
19031;DHT22;9648;51.130;13.978;2023-07-02T08:46:44;19.80;99.90
19031;DHT22;9648;51.130;13.978;2023-07-02T08:49:13;19.70;99.90
19031;DHT22;9648;51.130;13.978;2023-07-02T08:51:40;19.60;99.90
19031;DHT22;9648;51.130;13.978;2023-07-02T08:54:06;19.40;99.90
19031;DHT22;9648;51.130;13.978;2023-07-02T08:56:48;19.40;99.90
19031;DHT22;9648;51.130;13.978;2023-07-02T08:59:15;19.50;99.90
19031;DHT22;9648;51.130;13.978;2023-07-02T09:01:47;19.60;99.90
19031;DHT22;9648;51.130;13.978;2023-07-02T09:04:18;19.60;99.90
19031;DHT22;9648;51.130;13.978;2023-07-02T09:06:46;19.70;99.90
19031;DHT22;9648;51.130;13.978;2023-07-02T09:09:16;19.80;99.90
19031;DHT22;9648;51.130;13.978;2023-07-02T09:11:47;20.00;99.90
19031;DHT22;9648;51.130;13.978;2023-07-02T09:14:26;20.20;99.90
19031;DHT22;9648;51.130;13.978;2023-07-02T09:17:06;20.40;99.90
19031;DHT22;9648;51.130;13.978;2023-07-02T09:19:54;20.50;99.90
19031;DHT22;9648;51.130;13.978;2023-07-02T09:22:23;20.50;99.90
19031;DHT22;9648;51.130;13.978;2023-07-02T09:25:09;20.50;99.90
19031;DHT22;9648;51.130;13.978;2023-07-02T09:27:55;20.60;99.80
19031;DHT22;9648;51.130;13.978;2023-07-02T09:30:22;20.80;98.40
19031;DHT22;9648;51.130;13.978;2023-07-02T09:32:51;20.90;97.10
19031;DHT22;9648;51.130;13.978;2023-07-02T09:35:20;21.10;99.90
19031;DHT22;9648;51.130;13.978;2023-07-02T09:37:47;21.30;99.90
19031;DHT22;9648;51.130;13.978;2023-07-02T09:40:15;21.40;99.90
19031;DHT22;9648;51.130;13.978;2023-07-02T09:42:45;21.40;99.60
19031;DHT22;9648;51.130;13.978;2023-07-02T09:45:18;21.60;99.40
19031;DHT22;9648;51.130;13.978;2023-07-02T09:47:50;22.00;99.00
19031;DHT22;9648;51.130;13.978;2023-07-02T09:50:18;22.10;95.00
19031;DHT22;9648;51.130;13.978;2023-07-02T09:52:46;22.10;94.20
19031;DHT22;9648;51.130;13.978;2023-07-02T09:55:14;22.10;95.30
19031;DHT22;9648;51.130;13.978;2023-07-02T09:57:44;22.00;94.70
19031;DHT22;9648;51.130;13.978;2023-07-02T10:00:13;21.80;92.50
19031;DHT22;9648;51.130;13.978;2023-07-02T10:02:40;21.60;93.10
19031;DHT22;9648;51.130;13.978;2023-07-02T10:05:08;21.40;95.40
19031;DHT22;9648;51.130;13.978;2023-07-02T10:07:35;21.40;96.10
19031;DHT22;9648;51.130;13.978;2023-07-02T10:10:02;21.50;96.70
19031;DHT22;9648;51.130;13.978;2023-07-02T10:12:30;21.50;95.90
19031;DHT22;9648;51.130;13.978;2023-07-02T10:14:58;21.70;97.40
19031;DHT22;9648;51.130;13.978;2023-07-02T10:17:26;21.80;95.80
19031;DHT22;9648;51.130;13.978;2023-07-02T10:19:56;21.90;95.40
19031;DHT22;9648;51.130;13.978;2023-07-02T10:22:24;22.00;94.00
19031;DHT22;9648;51.130;13.978;2023-07-02T10:24:52;22.10;93.70
19031;DHT22;9648;51.130;13.978;2023-07-02T10:27:20;22.00;92.30
19031;DHT22;9648;51.130;13.978;2023-07-02T10:29:58;22.00;92.40
19031;DHT22;9648;51.130;13.978;2023-07-02T10:32:26;21.80;94.90
19031;DHT22;9648;51.130;13.978;2023-07-02T10:34:54;21.70;91.40
19031;DHT22;9648;51.130;13.978;2023-07-02T10:37:25;21.80;92.80
19031;DHT22;9648;51.130;13.978;2023-07-02T10:39:52;22.00;93.90
19031;DHT22;9648;51.130;13.978;2023-07-02T10:42:20;22.30;93.80
19031;DHT22;9648;51.130;13.978;2023-07-02T10:44:48;22.50;92.10
19031;DHT22;9648;51.130;13.978;2023-07-02T10:47:16;22.70;88.80
19031;DHT22;9648;51.130;13.978;2023-07-02T10:49:43;22.50;83.30
19031;DHT22;9648;51.130;13.978;2023-07-02T10:52:09;22.20;87.90
19031;DHT22;9648;51.130;13.978;2023-07-02T10:54:42;22.10;91.90
19031;DHT22;9648;51.130;13.978;2023-07-02T10:57:09;22.10;86.30
19031;DHT22;9648;51.130;13.978;2023-07-02T10:59:37;21.90;84.10
19031;DHT22;9648;51.130;13.978;2023-07-02T11:02:05;21.70;82.70
19031;DHT22;9648;51.130;13.978;2023-07-02T11:04:32;21.70;83.10
19031;DHT22;9648;51.130;13.978;2023-07-02T11:07:00;21.90;88.00
19031;DHT22;9648;51.130;13.978;2023-07-02T11:09:27;22.10;86.90
19031;DHT22;9648;51.130;13.978;2023-07-02T11:11:57;22.00;85.70
19031;DHT22;9648;51.130;13.978;2023-07-02T11:14:31;22.00;86.80
19031;DHT22;9648;51.130;13.978;2023-07-02T11:16:59;22.10;85.80
19031;DHT22;9648;51.130;13.978;2023-07-02T11:19:27;22.40;83.10
19031;DHT22;9648;51.130;13.978;2023-07-02T11:21:56;22.80;84.90
19031;DHT22;9648;51.130;13.978;2023-07-02T11:24:28;23.00;77.80
19031;DHT22;9648;51.130;13.978;2023-07-02T11:26:57;23.00;77.70
19031;DHT22;9648;51.130;13.978;2023-07-02T11:29:24;23.20;77.90
19031;DHT22;9648;51.130;13.978;2023-07-02T11:31:51;23.20;74.90
19031;DHT22;9648;51.130;13.978;2023-07-02T11:34:19;23.20;77.00
19031;DHT22;9648;51.130;13.978;2023-07-02T11:36:47;23.10;76.80
19031;DHT22;9648;51.130;13.978;2023-07-02T11:39:15;23.00;79.60
19031;DHT22;9648;51.130;13.978;2023-07-02T11:41:43;22.80;75.30
19031;DHT22;9648;51.130;13.978;2023-07-02T11:44:12;22.80;77.50
19031;DHT22;9648;51.130;13.978;2023-07-02T11:46:39;22.70;73.50
19031;DHT22;9648;51.130;13.978;2023-07-02T11:49:06;22.90;72.80
19031;DHT22;9648;51.130;13.978;2023-07-02T11:51:35;23.00;73.20
19031;DHT22;9648;51.130;13.978;2023-07-02T11:54:02;23.20;73.50
19031;DHT22;9648;51.130;13.978;2023-07-02T11:56:29;23.20;67.40
19031;DHT22;9648;51.130;13.978;2023-07-02T11:58:56;23.10;71.30
19031;DHT22;9648;51.130;13.978;2023-07-02T12:01:25;23.10;68.70
19031;DHT22;9648;51.130;13.978;2023-07-02T12:03:52;23.30;76.40
19031;DHT22;9648;51.130;13.978;2023-07-02T12:06:19;23.60;68.60
19031;DHT22;9648;51.130;13.978;2023-07-02T12:08:46;23.60;68.00
19031;DHT22;9648;51.130;13.978;2023-07-02T12:11:13;23.60;69.80
19031;DHT22;9648;51.130;13.978;2023-07-02T12:13:41;23.70;68.70
19031;DHT22;9648;51.130;13.978;2023-07-02T12:16:08;23.90;68.00
19031;DHT22;9648;51.130;13.978;2023-07-02T12:18:36;23.90;68.50
19031;DHT22;9648;51.130;13.978;2023-07-02T12:21:03;24.10;68.30
19031;DHT22;9648;51.130;13.978;2023-07-02T12:23:30;24.40;70.60
19031;DHT22;9648;51.130;13.978;2023-07-02T12:25:56;24.40;64.40
19031;DHT22;9648;51.130;13.978;2023-07-02T12:28:23;24.30;60.80
19031;DHT22;9648;51.130;13.978;2023-07-02T12:30:50;24.00;62.20
19031;DHT22;9648;51.130;13.978;2023-07-02T12:33:17;23.70;69.20
19031;DHT22;9648;51.130;13.978;2023-07-02T12:35:45;23.60;70.70
19031;DHT22;9648;51.130;13.978;2023-07-02T12:38:12;23.60;69.50
19031;DHT22;9648;51.130;13.978;2023-07-02T12:40:39;23.60;71.90
19031;DHT22;9648;51.130;13.978;2023-07-02T12:43:06;23.70;71.70
19031;DHT22;9648;51.130;13.978;2023-07-02T12:45:33;23.80;72.00
19031;DHT22;9648;51.130;13.978;2023-07-02T12:48:00;24.00;70.00
19031;DHT22;9648;51.130;13.978;2023-07-02T12:50:27;24.00;67.60
19031;DHT22;9648;51.130;13.978;2023-07-02T12:52:55;24.20;67.10
19031;DHT22;9648;51.130;13.978;2023-07-02T12:55:22;24.30;64.30
19031;DHT22;9648;51.130;13.978;2023-07-02T12:57:49;24.30;63.60
19031;DHT22;9648;51.130;13.978;2023-07-02T13:00:16;24.40;62.70
19031;DHT22;9648;51.130;13.978;2023-07-02T13:02:43;24.50;65.60
19031;DHT22;9648;51.130;13.978;2023-07-02T13:05:12;24.20;62.40
19031;DHT22;9648;51.130;13.978;2023-07-02T13:07:39;23.90;64.00
19031;DHT22;9648;51.130;13.978;2023-07-02T13:10:07;23.50;63.90
19031;DHT22;9648;51.130;13.978;2023-07-02T13:12:35;23.20;64.20
19031;DHT22;9648;51.130;13.978;2023-07-02T13:15:02;23.00;65.40
19031;DHT22;9648;51.130;13.978;2023-07-02T13:17:28;22.90;66.90
19031;DHT22;9648;51.130;13.978;2023-07-02T13:19:55;22.80;68.80
19031;DHT22;9648;51.130;13.978;2023-07-02T13:22:22;22.80;69.90
19031;DHT22;9648;51.130;13.978;2023-07-02T13:24:59;22.80;71.50
19031;DHT22;9648;51.130;13.978;2023-07-02T13:27:27;23.00;71.00
19031;DHT22;9648;51.130;13.978;2023-07-02T13:29:54;23.10;68.40
19031;DHT22;9648;51.130;13.978;2023-07-02T13:32:21;22.90;69.20
19031;DHT22;9648;51.130;13.978;2023-07-02T13:34:48;22.70;69.90
19031;DHT22;9648;51.130;13.978;2023-07-02T13:37:17;22.60;69.10
19031;DHT22;9648;51.130;13.978;2023-07-02T13:39:44;22.60;70.30
19031;DHT22;9648;51.130;13.978;2023-07-02T13:42:11;22.60;71.10
19031;DHT22;9648;51.130;13.978;2023-07-02T13:44:39;22.80;73.10
19031;DHT22;9648;51.130;13.978;2023-07-02T13:47:06;23.00;71.30
19031;DHT22;9648;51.130;13.978;2023-07-02T13:49:33;23.20;71.70
19031;DHT22;9648;51.130;13.978;2023-07-02T13:52:00;23.30;71.20
19031;DHT22;9648;51.130;13.978;2023-07-02T13:54:27;23.40;70.40
19031;DHT22;9648;51.130;13.978;2023-07-02T13:56:56;23.40;69.70
19031;DHT22;9648;51.130;13.978;2023-07-02T13:59:24;23.40;70.60
19031;DHT22;9648;51.130;13.978;2023-07-02T14:01:52;23.30;70.00
19031;DHT22;9648;51.130;13.978;2023-07-02T14:04:19;23.00;70.00
19031;DHT22;9648;51.130;13.978;2023-07-02T14:06:46;22.80;68.80
19031;DHT22;9648;51.130;13.978;2023-07-02T14:09:13;22.70;69.10
19031;DHT22;9648;51.130;13.978;2023-07-02T14:11:40;22.70;69.80
19031;DHT22;9648;51.130;13.978;2023-07-02T14:14:08;23.00;71.80
19031;DHT22;9648;51.130;13.978;2023-07-02T14:16:37;23.40;70.10
19031;DHT22;9648;51.130;13.978;2023-07-02T14:19:04;23.60;70.50
19031;DHT22;9648;51.130;13.978;2023-07-02T14:21:31;23.70;68.80
19031;DHT22;9648;51.130;13.978;2023-07-02T14:23:58;23.80;69.70
19031;DHT22;9648;51.130;13.978;2023-07-02T14:26:25;23.80;63.80
19031;DHT22;9648;51.130;13.978;2023-07-02T14:28:53;23.40;65.30
19031;DHT22;9648;51.130;13.978;2023-07-02T14:31:19;23.40;66.20
19031;DHT22;9648;51.130;13.978;2023-07-02T14:33:48;23.40;64.40
19031;DHT22;9648;51.130;13.978;2023-07-02T14:36:15;23.50;64.80
19031;DHT22;9648;51.130;13.978;2023-07-02T14:38:42;23.50;63.90
19031;DHT22;9648;51.130;13.978;2023-07-02T14:41:09;23.10;64.10
19031;DHT22;9648;51.130;13.978;2023-07-02T14:43:36;22.90;66.70
19031;DHT22;9648;51.130;13.978;2023-07-02T14:46:03;22.80;66.30
19031;DHT22;9648;51.130;13.978;2023-07-02T14:48:31;22.70;68.00
19031;DHT22;9648;51.130;13.978;2023-07-02T14:51:00;22.60;68.60
19031;DHT22;9648;51.130;13.978;2023-07-02T14:53:29;22.60;69.10
19031;DHT22;9648;51.130;13.978;2023-07-02T14:55:58;22.60;68.90
19031;DHT22;9648;51.130;13.978;2023-07-02T14:58:26;23.00;69.00
19031;DHT22;9648;51.130;13.978;2023-07-02T15:00:55;23.70;65.80
19031;DHT22;9648;51.130;13.978;2023-07-02T15:03:23;23.90;66.00
19031;DHT22;9648;51.130;13.978;2023-07-02T15:05:51;24.00;65.50
19031;DHT22;9648;51.130;13.978;2023-07-02T15:08:20;23.90;64.50
19031;DHT22;9648;51.130;13.978;2023-07-02T15:10:49;23.90;65.20
19031;DHT22;9648;51.130;13.978;2023-07-02T15:13:16;24.10;64.20
19031;DHT22;9648;51.130;13.978;2023-07-02T15:15:44;24.30;63.70
19031;DHT22;9648;51.130;13.978;2023-07-02T15:18:11;24.10;63.70
19031;DHT22;9648;51.130;13.978;2023-07-02T15:20:38;23.80;63.80
19031;DHT22;9648;51.130;13.978;2023-07-02T15:23:05;23.40;65.20
19031;DHT22;9648;51.130;13.978;2023-07-02T15:25:33;23.10;65.10
19031;DHT22;9648;51.130;13.978;2023-07-02T15:28:01;22.90;65.90
19031;DHT22;9648;51.130;13.978;2023-07-02T15:30:28;22.70;64.70
19031;DHT22;9648;51.130;13.978;2023-07-02T15:32:55;22.50;67.20
19031;DHT22;9648;51.130;13.978;2023-07-02T15:35:22;22.50;67.60